Zim Luanda — 9HA2029 — position and weather

sailwx.info

Track history (hours):
 
Tides and Currents Weather Stations Pressure Air Temp Water Temp Dewpoint Dewpoint Depression Visibility Wind Speed Wind Dir Waves Ship Positions

Zim Luanda

Last reported at 2017-Jul-24 16:35 UTC. Time now 2017-Jul-25 04:45 UTC.
Position N 35°59' E 024°35'.

Length 260 m; draft 12.1 m.

Type: Ship (hazmat cat A). MMSI: 249830000.

Date/timePositionNaut miles runAvg speedWind from/ knotsBaromVisibWave heightAir tempDewpointWater temp
2017-Jul-24 16:35N 35°59' E 024°35'118.8
2017-Jul-24 16:30N 35°59' E 024°34'918.7
2017-Jul-24 16:00N 35°59' E 024°22'26820.7
2017-Jul-24 03:05N 36°16' E 018°51'3822.8
2017-Jul-24 01:26N 36°18' E 018°05'11823.0
2017-Jul-23 20:19N 36°26' E 015°38'723.0
2017-Jul-23 20:00N 36°26' E 015°29'1123.1
2017-Jul-23 19:30N 36°27' E 015°15'1223.1
2017-Jul-23 19:00N 36°27' E 015°01'1223.7
2017-Jul-23 18:30N 36°28' E 014°46'1223.7
2017-Jul-23 18:00N 36°29' E 014°32'1223.6
2017-Jul-23 17:30N 36°31' E 014°17'1223.4
2017-Jul-23 17:00N 36°32' E 014°02'1223.1
2017-Jul-23 16:30N 36°35' E 013°48'1123.1
2017-Jul-23 16:00N 36°38' E 013°35'1223.1
2017-Jul-23 15:30N 36°40' E 013°21'1223.1
2017-Jul-23 15:00N 36°43' E 013°07'1222.9
2017-Jul-23 14:30N 36°45' E 012°53'1122.8
2017-Jul-23 14:00N 36°48' E 012°39'1122.9
2017-Jul-23 13:31N 36°53' E 012°26'1222.8
2017-Jul-23 13:00N 36°58' E 012°13'1223.1
2017-Jul-23 12:30N 37°02' E 011°60'1223.4
2017-Jul-23 12:00N 37°07' E 011°46'1223.5
2017-Jul-23 11:30N 37°13' E 011°33'1223.6
2017-Jul-23 11:00N 37°18' E 011°20'1223.3
2017-Jul-23 10:30N 37°23' E 011°07'1223.3
2017-Jul-23 10:00N 37°28' E 010°53'1223.2
2017-Jul-23 09:30N 37°31' E 010°39'1223.5
2017-Jul-23 09:00N 37°35' E 010°25'1223.5
2017-Jul-23 08:30N 37°41' E 010°13'1223.7
2017-Jul-23 08:00N 37°47' E 010°00'1223.7
2017-Jul-23 07:30N 37°53' E 009°47'1123.5
2017-Jul-23 07:00N 37°59' E 009°34'1323.2
2017-Jul-23 06:27N 38°05' E 009°20'1023.1
2017-Jul-23 06:00N 38°10' E 009°08'1123.1
2017-Jul-23 05:30N 38°15' E 008°55'1223.0
2017-Jul-23 05:00N 38°22' E 008°43'1123.0
2017-Jul-23 04:30N 38°27' E 008°30'11323.3
2017-Jul-22 23:39N 39°22' E 006°23'323.5
2017-Jul-22 23:30N 39°23' E 006°19'1223.5
2017-Jul-22 23:00N 39°29' E 006°05'2623.4
2017-Jul-22 21:54N 39°42' E 005°36'11623.1
2017-Jul-22 16:52N 40°31' E 003°19'822.4
2017-Jul-22 16:30N 40°33' E 003°09'1122.6
2017-Jul-22 16:00N 40°37' E 002°55'1122.6
2017-Jul-22 15:30N 40°41' E 002°40'1122.4
2017-Jul-22 15:00N 40°44' E 002°27'2222.2
2017-Jul-22 14:00N 40°52' E 001°59'1122.2
2017-Jul-22 13:30N 40°55' E 001°45'1221.2
2017-Jul-22 12:57N 40°59' E 001°30'919.8
2017-Jul-22 12:30N 41°02' E 001°19'6 0.4
2017-Jul-21 23:09N 41°06' E 001°13'0 0.0
2017-Jul-21 22:34N 41°06' E 001°13'0 0.1
2017-Jul-21 22:30N 41°06' E 001°13'2310.2
2017-Jul-21 20:14N 40°43' E 001°05'413.8
2017-Jul-21 19:56N 40°40' E 001°03'613.7
2017-Jul-21 19:30N 40°35' E 000°59'2613.8
2017-Jul-21 17:36N 40°12' E 000°42'513.7
2017-Jul-21 17:14N 40°08' E 000°38'313.9
2017-Jul-21 17:00N 40°05' E 000°35'  
2017-Jul-17 12:39N 38°51' E 000°20'313.8
2017-Jul-17 12:24N 38°49' E 000°22'1812.4
2017-Jul-17 10:55N 38°30' E 000°18'814.8
2017-Jul-17 10:23N 38°24' E 000°12'614.9
2017-Jul-17 10:00N 38°19' E 000°09'1314.8
2017-Jul-17 09:08N 38°09' W 000°01'214.7
2017-Jul-17 08:59N 38°07' W 000°02'814.7
2017-Jul-17 08:26N 37°60' W 000°08'614.6
2017-Jul-17 08:00N 37°55' W 000°12'714.7
2017-Jul-17 07:30N 37°49' W 000°17'714.7
2017-Jul-17 07:01N 37°42' W 000°22'814.7
2017-Jul-17 06:28N 37°35' W 000°27'714.2
2017-Jul-17 06:00N 37°31' W 000°33'814.7
2017-Jul-17 05:29N 37°26' W 000°40'714.8
2017-Jul-17 05:00N 37°21' W 000°47'814.9
2017-Jul-17 04:26N 37°16' W 000°55'614.8
2017-Jul-17 04:00N 37°11' W 001°01'714.7
2017-Jul-17 03:30N 37°06' W 001°07'714.6
2017-Jul-17 03:00N 37°01' W 001°14'814.8
2017-Jul-17 02:28N 36°55' W 001°21'714.7
2017-Jul-17 02:00N 36°51' W 001°27'4014.6
2017-Jul-16 23:14N 36°26' W 002°06'414.9
2017-Jul-16 22:58N 36°23' W 002°10'714.5
2017-Jul-16 22:30N 36°21' W 002°18'1114.8
2017-Jul-16 21:46N 36°19' W 002°31'814.7
2017-Jul-16 21:12N 36°18' W 002°42'18414.6
2017-Jul-16 08:36N 35°54' W 006°28'115.3
2017-Jul-16 08:30N 35°54' W 006°30'815.0
2017-Jul-16 08:00N 35°54' W 006°39'815.2
2017-Jul-16 07:28N 35°54' W 006°49'815.3
2017-Jul-16 06:58N 35°54' W 006°59'715.0
2017-Jul-16 06:30N 35°55' W 007°07'815.0
2017-Jul-16 06:00N 35°57' W 007°16'714.9
2017-Jul-16 05:30N 35°59' W 007°25'815.0
2017-Jul-16 05:00N 36°01' W 007°34'715.1
2017-Jul-16 04:30N 36°03' W 007°43'815.1
2017-Jul-16 04:00N 36°04' W 007°52'815.0
2017-Jul-16 03:30N 36°06' W 008°01'715.1
2017-Jul-16 03:00N 36°08' W 008°10'714.9
2017-Jul-16 02:30N 36°09' W 008°19'815.1
2017-Jul-16 02:00N 36°11' W 008°28'815.1
2017-Jul-16 01:30N 36°13' W 008°37'715.0
2017-Jul-16 01:00N 36°14' W 008°46'714.6
2017-Jul-16 00:30N 36°16' W 008°55'815.1
2017-Jul-16 00:00N 36°18' W 009°04'815.3
2017-Jul-15 23:30N 36°20' W 009°13'815.2
2017-Jul-15 23:00N 36°22' W 009°22'815.1
2017-Jul-15 22:30N 36°24' W 009°31'815.2
2017-Jul-15 22:00N 36°26' W 009°41'815.1
2017-Jul-15 21:30N 36°28' W 009°50'815.2
2017-Jul-15 21:00N 36°30' W 009°59'815.1
2017-Jul-15 20:30N 36°32' W 010°08'815.2
2017-Jul-15 20:00N 36°34' W 010°17'815.2
2017-Jul-15 19:30N 36°36' W 010°26'815.1
2017-Jul-15 19:00N 36°38' W 010°35'815.2
2017-Jul-15 18:30N 36°41' W 010°44'815.3
2017-Jul-15 18:01N 36°43' W 010°53'815.0
2017-Jul-15 17:30N 36°45' W 011°02'715.0
2017-Jul-15 17:00N 36°47' W 011°11'714.8
2017-Jul-15 16:30N 36°50' W 011°20'4 8.9
2017-Jul-15 16:00N 36°51' W 011°25'815.0
2017-Jul-15 15:30N 36°53' W 011°34'714.8
2017-Jul-15 15:01N 36°55' W 011°43'1514.6
2017-Jul-15 14:01N 36°59' W 012°01'815.4
2017-Jul-15 13:30N 37°02' W 012°10'815.4
2017-Jul-15 13:00N 37°04' W 012°19'714.9
2017-Jul-15 12:30N 37°06' W 012°28'815.2
2017-Jul-15 12:00N 37°08' W 012°37'815.6
2017-Jul-15 11:30N 37°11' W 012°46'815.4
2017-Jul-15 11:01N 37°13' W 012°56'714.9
2017-Jul-15 10:30N 37°15' W 013°05'715.0
2017-Jul-15 10:00N 37°17' W 013°14'815.5
2017-Jul-15 09:30N 37°19' W 013°23'714.9
2017-Jul-15 09:00N 37°21' W 013°32'815.0
2017-Jul-15 08:29N 37°24' W 013°41'815.1
2017-Jul-15 07:57N 37°26' W 013°51'714.7
2017-Jul-15 07:27N 37°28' W 014°00'914.6
2017-Jul-15 06:48N 37°31' W 014°11'515.0
2017-Jul-15 06:27N 37°33' W 014°18'814.7
2017-Jul-15 05:56N 37°35' W 014°27'814.8
2017-Jul-15 05:26N 37°37' W 014°36'714.8
2017-Jul-15 04:59N 37°39' W 014°44'814.7
2017-Jul-15 04:28N 37°41' W 014°53'714.8
2017-Jul-15 04:00N 37°43' W 015°01'714.6
2017-Jul-15 03:30N 37°45' W 015°10'714.4
2017-Jul-15 03:01N 37°46' W 015°19'714.9
2017-Jul-15 02:30N 37°48' W 015°28'814.8
2017-Jul-15 02:00N 37°50' W 015°37'714.6
2017-Jul-15 01:30N 37°51' W 015°46'714.7
2017-Jul-15 01:00N 37°53' W 015°55'815.1
2017-Jul-15 00:30N 37°55' W 016°05'814.8
2017-Jul-14 23:59N 37°57' W 016°14'714.7
2017-Jul-14 23:31N 37°59' W 016°23'714.7
2017-Jul-14 23:00N 38°01' W 016°32'714.8
2017-Jul-14 22:30N 38°02' W 016°41'814.9
2017-Jul-14 21:59N 38°04' W 016°51'714.7
2017-Jul-14 21:31N 38°06' W 016°59'714.8
2017-Jul-14 21:00N 38°08' W 017°08'915.6
2017-Jul-14 20:27N 38°10' W 017°19'614.2
2017-Jul-14 20:01N 38°11' W 017°27'714.9
2017-Jul-14 19:31N 38°13' W 017°36'815.1
2017-Jul-14 19:00N 38°15' W 017°45'714.9
2017-Jul-14 18:31N 38°17' W 017°54'714.7
2017-Jul-14 18:00N 38°18' W 018°04'  
Track history (hours):
 
Tides and Currents Weather Stations Pressure Air Temp Water Temp Dewpoint Dewpoint Depression Visibility Wind Speed Wind Dir Waves Ship Positions

Zim Luanda

Last reported at 2017-Jul-24 16:35 UTC. Time now 2017-Jul-25 04:45 UTC.
Position N 35°59' E 024°35'.

Length 260 m; draft 12.1 m.

Type: Ship (hazmat cat A). MMSI: 249830000.

Date/timePositionNaut miles runAvg speedWind from/ knotsBaromVisibWave heightAir tempDewpointWater temp
2017-Jul-24 16:35N 35°59' E 024°35'118.8
2017-Jul-24 16:30N 35°59' E 024°34'918.7
2017-Jul-24 16:00N 35°59' E 024°22'26820.7
2017-Jul-24 03:05N 36°16' E 018°51'3822.8
2017-Jul-24 01:26N 36°18' E 018°05'11823.0
2017-Jul-23 20:19N 36°26' E 015°38'723.0
2017-Jul-23 20:00N 36°26' E 015°29'1123.1
2017-Jul-23 19:30N 36°27' E 015°15'1223.1
2017-Jul-23 19:00N 36°27' E 015°01'1223.7
2017-Jul-23 18:30N 36°28' E 014°46'1223.7
2017-Jul-23 18:00N 36°29' E 014°32'1223.6
2017-Jul-23 17:30N 36°31' E 014°17'1223.4
2017-Jul-23 17:00N 36°32' E 014°02'1223.1
2017-Jul-23 16:30N 36°35' E 013°48'1123.1
2017-Jul-23 16:00N 36°38' E 013°35'1223.1
2017-Jul-23 15:30N 36°40' E 013°21'1223.1
2017-Jul-23 15:00N 36°43' E 013°07'1222.9
2017-Jul-23 14:30N 36°45' E 012°53'1122.8
2017-Jul-23 14:00N 36°48' E 012°39'1122.9
2017-Jul-23 13:31N 36°53' E 012°26'1222.8
2017-Jul-23 13:00N 36°58' E 012°13'1223.1
2017-Jul-23 12:30N 37°02' E 011°60'1223.4
2017-Jul-23 12:00N 37°07' E 011°46'1223.5
2017-Jul-23 11:30N 37°13' E 011°33'1223.6
2017-Jul-23 11:00N 37°18' E 011°20'1223.3
2017-Jul-23 10:30N 37°23' E 011°07'1223.3
2017-Jul-23 10:00N 37°28' E 010°53'1223.2
2017-Jul-23 09:30N 37°31' E 010°39'1223.5
2017-Jul-23 09:00N 37°35' E 010°25'1223.5
2017-Jul-23 08:30N 37°41' E 010°13'1223.7
2017-Jul-23 08:00N 37°47' E 010°00'1223.7
2017-Jul-23 07:30N 37°53' E 009°47'1123.5
2017-Jul-23 07:00N 37°59' E 009°34'1323.2
2017-Jul-23 06:27N 38°05' E 009°20'1023.1
2017-Jul-23 06:00N 38°10' E 009°08'1123.1
2017-Jul-23 05:30N 38°15' E 008°55'1223.0
2017-Jul-23 05:00N 38°22' E 008°43'1123.0
2017-Jul-23 04:30N 38°27' E 008°30'11323.3
2017-Jul-22 23:39N 39°22' E 006°23'323.5
2017-Jul-22 23:30N 39°23' E 006°19'1223.5
2017-Jul-22 23:00N 39°29' E 006°05'2623.4
2017-Jul-22 21:54N 39°42' E 005°36'11623.1
2017-Jul-22 16:52N 40°31' E 003°19'822.4
2017-Jul-22 16:30N 40°33' E 003°09'1122.6
2017-Jul-22 16:00N 40°37' E 002°55'1122.6
2017-Jul-22 15:30N 40°41' E 002°40'1122.4
2017-Jul-22 15:00N 40°44' E 002°27'2222.2
2017-Jul-22 14:00N 40°52' E 001°59'1122.2
2017-Jul-22 13:30N 40°55' E 001°45'1221.2
2017-Jul-22 12:57N 40°59' E 001°30'919.8
2017-Jul-22 12:30N 41°02' E 001°19'6 0.4
2017-Jul-21 23:09N 41°06' E 001°13'0 0.0
2017-Jul-21 22:34N 41°06' E 001°13'0 0.1
2017-Jul-21 22:30N 41°06' E 001°13'2310.2
2017-Jul-21 20:14N 40°43' E 001°05'413.8
2017-Jul-21 19:56N 40°40' E 001°03'613.7
2017-Jul-21 19:30N 40°35' E 000°59'2613.8
2017-Jul-21 17:36N 40°12' E 000°42'513.7
2017-Jul-21 17:14N 40°08' E 000°38'313.9
2017-Jul-21 17:00N 40°05' E 000°35'  
2017-Jul-17 12:39N 38°51' E 000°20'313.8
2017-Jul-17 12:24N 38°49' E 000°22'1812.4
2017-Jul-17 10:55N 38°30' E 000°18'814.8
2017-Jul-17 10:23N 38°24' E 000°12'614.9
2017-Jul-17 10:00N 38°19' E 000°09'1314.8
2017-Jul-17 09:08N 38°09' W 000°01'214.7
2017-Jul-17 08:59N 38°07' W 000°02'814.7
2017-Jul-17 08:26N 37°60' W 000°08'614.6
2017-Jul-17 08:00N 37°55' W 000°12'714.7
2017-Jul-17 07:30N 37°49' W 000°17'714.7
2017-Jul-17 07:01N 37°42' W 000°22'814.7
2017-Jul-17 06:28N 37°35' W 000°27'714.2
2017-Jul-17 06:00N 37°31' W 000°33'814.7
2017-Jul-17 05:29N 37°26' W 000°40'714.8
2017-Jul-17 05:00N 37°21' W 000°47'814.9
2017-Jul-17 04:26N 37°16' W 000°55'614.8
2017-Jul-17 04:00N 37°11' W 001°01'714.7
2017-Jul-17 03:30N 37°06' W 001°07'714.6
2017-Jul-17 03:00N 37°01' W 001°14'814.8
2017-Jul-17 02:28N 36°55' W 001°21'714.7
2017-Jul-17 02:00N 36°51' W 001°27'4014.6
2017-Jul-16 23:14N 36°26' W 002°06'414.9
2017-Jul-16 22:58N 36°23' W 002°10'714.5
2017-Jul-16 22:30N 36°21' W 002°18'1114.8
2017-Jul-16 21:46N 36°19' W 002°31'814.7
2017-Jul-16 21:12N 36°18' W 002°42'18414.6
2017-Jul-16 08:36N 35°54' W 006°28'115.3
2017-Jul-16 08:30N 35°54' W 006°30'815.0
2017-Jul-16 08:00N 35°54' W 006°39'815.2
2017-Jul-16 07:28N 35°54' W 006°49'815.3
2017-Jul-16 06:58N 35°54' W 006°59'715.0
2017-Jul-16 06:30N 35°55' W 007°07'815.0
2017-Jul-16 06:00N 35°57' W 007°16'714.9
2017-Jul-16 05:30N 35°59' W 007°25'815.0
2017-Jul-16 05:00N 36°01' W 007°34'715.1
2017-Jul-16 04:30N 36°03' W 007°43'815.1
2017-Jul-16 04:00N 36°04' W 007°52'815.0
2017-Jul-16 03:30N 36°06' W 008°01'715.1
2017-Jul-16 03:00N 36°08' W 008°10'714.9
2017-Jul-16 02:30N 36°09' W 008°19'815.1
2017-Jul-16 02:00N 36°11' W 008°28'815.1
2017-Jul-16 01:30N 36°13' W 008°37'715.0
2017-Jul-16 01:00N 36°14' W 008°46'714.6
2017-Jul-16 00:30N 36°16' W 008°55'815.1
2017-Jul-16 00:00N 36°18' W 009°04'815.3
2017-Jul-15 23:30N 36°20' W 009°13'815.2
2017-Jul-15 23:00N 36°22' W 009°22'815.1
2017-Jul-15 22:30N 36°24' W 009°31'815.2
2017-Jul-15 22:00N 36°26' W 009°41'815.1
2017-Jul-15 21:30N 36°28' W 009°50'815.2
2017-Jul-15 21:00N 36°30' W 009°59'815.1
2017-Jul-15 20:30N 36°32' W 010°08'815.2
2017-Jul-15 20:00N 36°34' W 010°17'815.2
2017-Jul-15 19:30N 36°36' W 010°26'815.1
2017-Jul-15 19:00N 36°38' W 010°35'815.2
2017-Jul-15 18:30N 36°41' W 010°44'815.3
2017-Jul-15 18:01N 36°43' W 010°53'815.0
2017-Jul-15 17:30N 36°45' W 011°02'715.0
2017-Jul-15 17:00N 36°47' W 011°11'714.8
2017-Jul-15 16:30N 36°50' W 011°20'4 8.9
2017-Jul-15 16:00N 36°51' W 011°25'815.0
2017-Jul-15 15:30N 36°53' W 011°34'714.8
2017-Jul-15 15:01N 36°55' W 011°43'1514.6
2017-Jul-15 14:01N 36°59' W 012°01'815.4
2017-Jul-15 13:30N 37°02' W 012°10'815.4
2017-Jul-15 13:00N 37°04' W 012°19'714.9
2017-Jul-15 12:30N 37°06' W 012°28'815.2
2017-Jul-15 12:00N 37°08' W 012°37'815.6
2017-Jul-15 11:30N 37°11' W 012°46'815.4
2017-Jul-15 11:01N 37°13' W 012°56'714.9
2017-Jul-15 10:30N 37°15' W 013°05'715.0
2017-Jul-15 10:00N 37°17' W 013°14'815.5
2017-Jul-15 09:30N 37°19' W 013°23'714.9
2017-Jul-15 09:00N 37°21' W 013°32'815.0
2017-Jul-15 08:29N 37°24' W 013°41'815.1
2017-Jul-15 07:57N 37°26' W 013°51'714.7
2017-Jul-15 07:27N 37°28' W 014°00'914.6
2017-Jul-15 06:48N 37°31' W 014°11'515.0
2017-Jul-15 06:27N 37°33' W 014°18'814.7
2017-Jul-15 05:56N 37°35' W 014°27'814.8
2017-Jul-15 05:26N 37°37' W 014°36'714.8
2017-Jul-15 04:59N 37°39' W 014°44'814.7
2017-Jul-15 04:28N 37°41' W 014°53'714.8
2017-Jul-15 04:00N 37°43' W 015°01'714.6
2017-Jul-15 03:30N 37°45' W 015°10'714.4
2017-Jul-15 03:01N 37°46' W 015°19'714.9
2017-Jul-15 02:30N 37°48' W 015°28'814.8
2017-Jul-15 02:00N 37°50' W 015°37'714.6
2017-Jul-15 01:30N 37°51' W 015°46'714.7
2017-Jul-15 01:00N 37°53' W 015°55'815.1
2017-Jul-15 00:30N 37°55' W 016°05'814.8
2017-Jul-14 23:59N 37°57' W 016°14'714.7
2017-Jul-14 23:31N 37°59' W 016°23'714.7
2017-Jul-14 23:00N 38°01' W 016°32'714.8
2017-Jul-14 22:30N 38°02' W 016°41'814.9
2017-Jul-14 21:59N 38°04' W 016°51'714.7
2017-Jul-14 21:31N 38°06' W 016°59'714.8
2017-Jul-14 21:00N 38°08' W 017°08'915.6
2017-Jul-14 20:27N 38°10' W 017°19'614.2
2017-Jul-14 20:01N 38°11' W 017°27'714.9
2017-Jul-14 19:31N 38°13' W 017°36'815.1
2017-Jul-14 19:00N 38°15' W 017°45'714.9
2017-Jul-14 18:31N 38°17' W 017°54'714.7
2017-Jul-14 18:00N 38°18' W 018°04'  

Dump ship's entire track history